Time;durP1;ratioP1;P1;durP2;ratioP2;P2;SDS_P1;SDS_P2;PMS_P1;PMS_P2;Temp;Humidity;BMP_temperature;BMP_pressure;BME280_temperature;BME280_humidity;BME280_pressure;Samples;Min_cycle;Max_cycle;Signal;HPM_P1;HPM_P2
2021/11/03 00:01:37;;;;;;;11.40;9.60;;;;;;;15.17;68.48;100299.44;5052361;27;102606;-48
2021/11/03 00:04:04;;;;;;;10.77;9.68;;;;;;;15.18;68.00;100293.63;5056353;27;102841;-49
2021/11/03 00:06:31;;;;;;;12.07;10.18;;;;;;;15.17;68.10;100291.22;5053588;27;102640;-47
2021/11/03 00:09:00;;;;;;;10.75;9.65;;;;;;;15.17;68.34;100282.97;5050162;27;104076;-48
2021/11/03 00:11:29;;;;;;;10.70;9.60;;;;;;;15.17;68.16;100282.97;5061663;27;101939;-51
2021/11/03 00:13:55;;;;;;;;;;;;;;;15.17;68.46;100277.50;5054308;27;102029;-49
2021/11/03 00:16:22;;;;;;;12.38;10.20;;;;;;;15.16;68.43;100275.88;5049929;27;102359;-51
2021/11/03 00:18:48;;;;;;;11.50;10.38;;;;;;;15.16;68.40;100295.88;5049548;27;103874;-51
2021/11/03 00:21:15;;;;;;;10.57;9.32;;;;;;;15.17;68.26;100293.94;5044576;27;102357;-51
2021/11/03 00:23:42;;;;;;;10.45;9.45;;;;;;;15.17;68.40;100299.44;5047171;27;102320;-51
2021/11/03 00:26:08;;;;;;;10.80;9.55;;;;;;;15.16;68.11;100304.09;5050437;27;102513;-50
2021/11/03 00:28:36;;;;;;;10.23;9.23;;;;;;;15.16;68.41;100309.59;5052109;27;103881;-52
2021/11/03 00:31:04;;;;;;;10.52;9.10;;;;;;;15.17;68.29;100311.19;5061976;27;102500;-49
2021/11/03 00:33:32;;;;;;;10.15;9.05;;;;;;;15.14;68.64;100298.91;5059372;27;102287;-50
2021/11/03 00:35:58;;;;;;;12.93;9.85;;;;;;;15.16;68.38;100303.31;5054969;27;102786;-48
2021/11/03 00:38:25;;;;;;;10.60;9.45;;;;;;;15.15;68.24;100305.22;5059516;27;103749;-49
2021/11/03 00:40:52;;;;;;;9.98;8.98;;;;;;;15.16;68.39;100308.78;5051469;27;101962;-49
2021/11/03 00:43:20;;;;;;;10.10;9.10;;;;;;;15.16;68.61;100303.31;5056309;27;102623;-52
2021/11/03 00:45:48;;;;;;;10.88;9.27;;;;;;;15.15;68.63;100307.97;5057949;27;102898;-48
2021/11/03 00:48:15;;;;;;;10.13;9.05;;;;;;;15.16;68.40;100308.78;5056802;27;103932;-48
2021/11/03 00:50:41;;;;;;;10.95;9.60;;;;;;;15.14;68.26;100309.88;5057673;27;102531;-48
2021/11/03 00:53:08;;;;;;;10.77;9.40;;;;;;;15.16;68.58;100317.00;5055377;27;102231;-49
2021/11/03 00:55:35;;;;;;;22.70;9.60;;;;;;;15.16;68.55;100314.25;5043435;27;104858;-50
2021/11/03 00:58:02;;;;;;;10.15;8.98;;;;;;;15.16;68.77;100311.53;5055502;27;104240;-48
2021/11/03 01:00:28;;;;;;;10.23;8.82;;;;;;;15.15;68.38;100313.47;5057111;27;102118;-51
2021/11/03 01:02:56;;;;;;;10.65;9.05;;;;;;;15.16;68.66;100314.25;5057774;27;102160;-48
2021/11/03 01:05:25;;;;;;;11.32;9.52;;;;;;;15.16;68.38;100322.50;5053966;27;103449;-48
2021/11/03 01:07:53;;;;;;;11.20;9.05;;;;;;;15.14;68.54;100317.28;5056454;27;103884;-49
2021/11/03 01:10:21;;;;;;;10.95;8.88;;;;;;;15.14;68.73;100311.81;5059195;27;102162;-48
2021/11/03 01:12:48;;;;;;;;;;;;;;;15.15;68.75;100327.16;5056188;27;102527;-50
2021/11/03 01:15:18;;;;;;;11.57;9.95;;;;;;;15.16;68.53;100330.72;5056928;27;102221;-48
2021/11/03 01:17:45;;;;;;;9.95;8.95;;;;;;;15.15;68.79;100329.91;5059582;27;104038;-48
2021/11/03 01:20:14;;;;;;;10.70;9.25;;;;;;;15.14;68.50;100334.56;5055565;27;102771;-49
2021/11/03 01:22:41;;;;;;;10.85;9.45;;;;;;;15.14;68.71;100345.50;5053859;27;102290;-47
2021/11/03 01:25:11;;;;;;;10.95;9.85;;;;;;;15.14;68.80;100342.78;5057699;27;102690;-49
2021/11/03 01:27:38;;;;;;;10.80;9.63;;;;;;;15.16;68.54;100347.16;5038556;27;103996;-49
2021/11/03 01:30:06;;;;;;;10.55;9.45;;;;;;;15.15;68.83;100351.84;5056891;27;102413;-48
2021/11/03 01:32:36;;;;;;;10.88;9.02;;;;;;;15.15;68.85;100354.56;5056318;27;102170;-51
2021/11/03 01:35:02;;;;;;;10.40;9.27;;;;;;;15.16;68.94;100363.59;5059324;27;102513;-50
2021/11/03 01:37:31;;;;;;;10.75;9.48;;;;;;;15.14;68.65;100355.66;5054933;27;103946;-48
2021/11/03 01:39:57;;;;;;;10.23;9.13;;;;;;;15.14;68.72;100370.19;5047442;27;102055;-48
2021/11/03 01:42:24;;;;;;;10.15;9.05;;;;;;;15.15;68.95;100371.03;5056371;27;102241;-50
2021/11/03 01:44:50;;;;;;;9.85;8.93;;;;;;;15.14;68.79;100372.91;5054743;27;102310;-48
2021/11/03 01:47:42;;;;;;;10.23;9.23;;;;;;;15.16;68.89;100374.56;5047014;27;104107;-48
2021/11/03 01:50:15;;;;;;;10.60;8.82;;;;;;;15.16;68.53;100375.38;5058744;27;102097;-48
2021/11/03 01:52:46;;;;;;;9.80;8.80;;;;;;;15.14;68.67;100364.69;5055681;27;102280;-48
2021/11/03 01:55:14;;;;;;;9.98;8.98;;;;;;;15.16;68.62;100374.56;5046022;27;102247;-48
2021/11/03 01:57:44;;;;;;;10.85;9.52;;;;;;;15.16;68.62;100371.81;5039535;27;103921;-47
2021/11/03 02:00:16;;;;;;;10.07;9.07;;;;;;;15.14;68.92;100372.91;5049634;27;102228;-48
2021/11/03 02:02:43;;;;;;;9.48;8.15;;;;;;;15.16;68.41;100377.31;5048845;27;102243;-49
2021/11/03 02:05:12;;;;;;;10.90;9.15;;;;;;;15.17;68.80;100378.91;5052607;27;102762;-50
2021/11/03 02:07:39;;;;;;;9.98;8.88;;;;;;;15.16;68.70;100382.78;5057098;27;103882;-47
2021/11/03 02:10:08;;;;;;;10.98;9.48;;;;;;;15.15;68.93;100373.75;5058078;27;102172;-48
2021/11/03 02:12:34;;;;;;;10.85;9.27;;;;;;;15.16;68.95;100382.78;5055786;27;102169;-48
2021/11/03 02:15:02;;;;;;;9.48;8.57;;;;;;;15.15;68.72;100384.72;5053313;27;105882;-48
2021/11/03 02:17:29;;;;;;;13.07;9.52;;;;;;;15.15;68.74;100373.75;5053660;27;103914;-48
2021/11/03 02:19:59;;;;;;;10.00;8.50;;;;;;;15.16;68.62;100385.53;5048775;27;102230;-49
2021/11/03 02:22:33;;;;;;;9.80;8.80;;;;;;;15.14;68.76;100397.59;5040208;27;102486;-48
2021/11/03 02:25:06;;;;;;;9.95;8.95;;;;;;;15.16;68.73;100399.22;5054434;27;103941;-48
2021/11/03 02:27:36;;;;;;;9.43;8.45;;;;;;;15.16;68.88;100391.00;5050398;27;103892;-49
2021/11/03 02:30:04;;;;;;;9.48;8.48;;;;;;;15.14;68.72;100389.38;5057697;27;102008;-47
2021/11/03 02:32:33;;;;;;;10.48;8.60;;;;;;;15.14;68.80;100389.38;5053852;27;101981;-48
2021/11/03 02:35:00;;;;;;;9.70;8.70;;;;;;;15.15;68.85;100401.16;5050404;27;102145;-50
2021/11/03 02:37:44;;;;;;;9.63;8.70;;;;;;;15.14;68.83;100394.84;5045202;27;103756;-49
2021/11/03 02:40:44;;;;;;;10.73;9.00;;;;;;;15.16;68.70;100413.75;5053258;27;102389;-49
2021/11/03 02:43:18;;;;;;;10.20;9.18;;;;;;;15.16;68.85;100423.91;5048430;27;102669;-48
2021/11/03 02:45:52;;;;;;;10.05;8.68;;;;;;;15.15;68.55;100423.09;5051683;27;104348;-49
2021/11/03 02:48:20;;;;;;;10.05;8.98;;;;;;;15.16;68.94;100429.38;5044512;27;104075;-47
2021/11/03 02:51:09;;;;;;;10.07;9.07;;;;;;;15.16;69.00;100432.13;5054314;27;102381;-49
2021/11/03 02:53:44;;;;;;;10.13;9.10;;;;;;;15.14;68.78;100430.47;5046815;27;102233;-48
2021/11/03 02:56:12;;;;;;;10.20;9.13;;;;;;;15.16;68.75;100441.16;5043172;27;102699;-47
2021/11/03 02:58:39;;;;;;;10.18;8.98;;;;;;;15.17;68.67;100437.28;5053515;27;104044;-48
2021/11/03 03:01:16;;;;;;;9.75;8.85;;;;;;;15.15;68.73;100434.06;5054434;27;102083;-51
2021/11/03 03:03:46;;;;;;;10.40;9.10;;;;;;;15.16;68.93;100434.88;5053716;27;102910;-48
2021/11/03 03:06:20;;;;;;;10.02;8.88;;;;;;;15.14;68.83;100433.22;5058676;27;102437;-47
2021/11/03 03:08:47;;;;;;;9.80;8.80;;;;;;;15.16;68.88;100440.34;5051242;27;103887;-51
2021/11/03 03:11:16;;;;;;;10.23;9.20;;;;;;;15.15;68.94;100434.06;5047173;27;102083;-48
2021/11/03 03:13:42;;;;;;;10.20;8.93;;;;;;;15.16;69.00;100440.34;5051966;27;102572;-48
2021/11/03 03:16:09;;;;;;;10.75;8.98;;;;;;;15.16;69.03;100440.34;5049357;27;102125;-51
2021/11/03 03:18:36;;;;;;;10.07;9.07;;;;;;;15.16;68.85;100452.13;5038689;27;103919;-49
2021/11/03 03:21:02;;;;;;;11.38;9.73;;;;;;;15.17;69.15;100447.44;5055514;27;102133;-49
2021/11/03 03:23:29;;;;;;;10.73;9.60;;;;;;;15.16;68.86;100457.59;5052043;27;102369;-49
2021/11/03 03:25:57;;;;;;;11.38;10.27;;;;;;;15.14;68.77;100455.16;5060997;27;103062;-50
2021/11/03 03:28:26;;;;;;;11.52;9.95;;;;;;;15.17;68.76;100463.88;5051181;27;103928;-49
2021/11/03 03:30:52;;;;;;;11.38;10.07;;;;;;;15.16;69.10;100462.28;5044910;27;102352;-50
2021/11/03 03:33:19;;;;;;;10.70;9.68;;;;;;;15.16;69.09;100473.25;5050623;27;102510;-48
2021/11/03 03:35:47;;;;;;;11.20;9.90;;;;;;;15.16;69.14;100471.31;5058222;27;102225;-49
2021/11/03 03:38:13;;;;;;;11.90;10.30;;;;;;;15.15;68.75;100477.91;5033980;27;104045;-50
2021/11/03 03:40:40;;;;;;;11.80;10.60;;;;;;;15.16;69.00;100481.47;5052116;27;103253;-47
2021/11/03 03:43:06;;;;;;;10.68;9.60;;;;;;;15.16;68.95;100479.53;5052902;27;102222;-49
2021/11/03 03:45:37;;;;;;;11.07;9.98;;;;;;;15.16;69.30;100478.72;5051285;27;102220;-49
2021/11/03 03:48:04;;;;;;;13.80;11.30;;;;;;;15.16;69.18;100473.25;5049592;27;105223;-48
2021/11/03 03:50:30;;;;;;;11.60;10.40;;;;;;;15.17;69.27;100477.59;5060796;27;102231;-47
2021/11/03 03:52:57;;;;;;;11.90;10.65;;;;;;;15.16;68.77;100478.72;5052193;27;102394;-48
2021/11/03 03:55:23;;;;;;;12.45;11.25;;;;;;;15.16;69.13;100484.22;5048006;27;102408;-48
2021/11/03 03:57:50;;;;;;;13.02;10.75;;;;;;;15.16;69.06;100484.22;5051746;27;103874;-49
2021/11/03 04:00:19;;;;;;;11.10;9.90;;;;;;;15.16;68.94;100479.53;5051567;27;102101;-48
2021/11/03 04:02:48;;;;;;;12.00;10.77;;;;;;;15.16;68.84;100474.03;5049812;27;102437;-52
2021/11/03 04:05:15;;;;;;;12.95;11.63;;;;;;;15.16;69.06;100479.53;5058755;27;102276;-48
2021/11/03 04:07:41;;;;;;;13.30;11.27;;;;;;;15.16;68.93;100478.72;5057271;27;103887;-48
2021/11/03 04:10:08;;;;;;;11.73;10.50;;;;;;;15.16;69.00;100481.47;5053621;27;102424;-49
2021/11/03 04:12:35;;;;;;;12.98;10.98;;;;;;;15.15;68.78;100480.66;5057507;27;102274;-48
2021/11/03 04:15:03;;;;;;;13.70;12.02;;;;;;;15.16;68.97;100486.94;5058412;27;102209;-47
2021/11/03 04:17:29;;;;;;;12.95;11.52;;;;;;;15.16;68.94;100482.28;5055890;27;104255;-47
2021/11/03 04:19:58;;;;;;;12.30;11.00;;;;;;;15.16;69.33;100492.44;5045673;27;102439;-48
2021/11/03 04:22:24;;;;;;;12.82;11.48;;;;;;;15.17;68.83;100491.31;5047612;27;102789;-48
2021/11/03 04:24:51;;;;;;;12.88;11.30;;;;;;;15.16;69.22;100495.97;5045397;27;102370;-48
2021/11/03 04:27:17;;;;;;;13.20;11.77;;;;;;;15.16;69.11;100489.69;5056493;27;104080;-48
2021/11/03 04:29:44;;;;;;;12.60;11.30;;;;;;;15.16;69.27;100495.97;5045530;27;102360;-51
2021/11/03 04:32:10;;;;;;;12.10;10.80;;;;;;;15.16;69.09;100498.72;5059837;27;102001;-49
2021/11/03 04:34:37;;;;;;;14.23;11.55;;;;;;;15.15;69.31;100497.09;5048645;27;103914;-48
2021/11/03 04:37:05;;;;;;;12.88;11.57;;;;;;;15.16;69.30;100504.19;5053445;27;104093;-50
2021/11/03 04:39:31;;;;;;;13.07;11.70;;;;;;;15.17;69.08;100510.50;5056189;27;102106;-47
2021/11/03 04:41:58;;;;;;;13.18;11.73;;;;;;;15.17;69.06;100507.75;5046351;27;101991;-50
2021/11/03 04:44:25;;;;;;;16.27;12.68;;;;;;;15.16;69.26;100515.16;5042173;27;102561;-49
2021/11/03 04:46:51;;;;;;;12.82;11.52;;;;;;;15.16;69.11;100517.09;5048877;27;103943;-49
2021/11/03 04:49:18;;;;;;;14.10;12.48;;;;;;;15.16;69.17;100511.63;5056213;27;102150;-51
2021/11/03 04:51:45;;;;;;;13.63;11.88;;;;;;;15.16;68.77;100517.09;5058775;27;102466;-47
2021/11/03 04:54:13;;;;;;;13.15;11.55;;;;;;;15.17;69.33;100513.22;5062560;27;102386;-47
2021/11/03 04:56:39;;;;;;;16.20;12.60;;;;;;;15.16;69.32;100523.38;5059179;27;103988;-48
2021/11/03 04:59:06;;;;;;;14.73;12.30;;;;;;;15.16;69.04;100528.06;5053945;27;102426;-49
2021/11/03 05:01:33;;;;;;;14.52;13.00;;;;;;;15.17;69.32;100535.97;5056445;27;102167;-49
2021/11/03 05:04:00;;;;;;;15.65;13.25;;;;;;;15.16;69.05;100536.28;5057453;27;105534;-50
2021/11/03 05:06:29;;;;;;;14.13;12.60;;;;;;;15.17;69.32;100546.94;5055243;27;104105;-51
2021/11/03 05:08:57;;;;;;;14.98;13.05;;;;;;;15.17;69.15;100546.13;5067399;27;102359;-51
2021/11/03 05:11:25;;;;;;;16.33;13.15;;;;;;;15.16;69.10;100550.00;5050568;27;106229;-48
2021/11/03 05:13:51;;;;;;;15.50;13.65;;;;;;;15.16;69.22;100556.28;5048995;27;102485;-52
2021/11/03 05:16:23;;;;;;;14.45;12.95;;;;;;;15.16;68.93;100564.50;5051192;27;107885;-49
2021/11/03 05:18:51;;;;;;;15.13;13.27;;;;;;;15.16;69.07;100570.00;5051690;27;102240;-49
2021/11/03 05:21:18;;;;;;;13.90;12.40;;;;;;;15.16;69.17;100564.50;5054107;27;102380;-49
2021/11/03 05:23:44;;;;;;;14.50;13.00;;;;;;;15.16;68.99;100560.97;5056736;27;102399;-50
2021/11/03 05:26:16;;;;;;;14.40;12.88;;;;;;;15.16;69.24;100563.69;5050412;27;104899;-50
2021/11/03 05:28:46;;;;;;;14.95;13.45;;;;;;;15.15;69.22;100576.59;5060061;27;102139;-47
2021/11/03 05:31:12;;;;;;;15.70;13.23;;;;;;;15.17;69.42;100587.25;5058176;27;102277;-47
2021/11/03 05:33:39;;;;;;;15.93;13.70;;;;;;;15.17;69.32;100579.03;5050167;27;102364;-50
2021/11/03 05:36:05;;;;;;;14.70;13.15;;;;;;;15.17;69.00;100576.28;5049474;27;103969;-49
2021/11/03 05:38:32;;;;;;;16.63;13.80;;;;;;;15.16;69.27;100583.69;5064283;27;102021;-47
2021/11/03 05:40:59;;;;;;;15.15;13.55;;;;;;;15.16;69.51;100588.38;5057670;27;105238;-48
2021/11/03 05:43:25;;;;;;;15.48;13.88;;;;;;;15.17;69.32;100589.97;5049320;27;102183;-50
2021/11/03 05:45:53;;;;;;;14.82;13.27;;;;;;;15.16;69.55;100604.81;5040453;27;103929;-47
2021/11/03 05:48:24;;;;;;;15.65;13.70;;;;;;;15.18;69.41;100616.28;5040283;27;102494;-49
2021/11/03 05:50:50;;;;;;;16.02;14.05;;;;;;;15.17;69.50;100628.34;5023322;27;103902;-50
2021/11/03 05:53:17;;;;;;;15.40;13.25;;;;;;;15.17;69.12;100631.91;5042686;27;102449;-48
2021/11/03 05:55:43;;;;;;;14.73;13.13;;;;;;;15.18;69.43;100635.47;5045322;27;104327;-47
2021/11/03 05:58:10;;;;;;;15.48;13.30;;;;;;;15.18;69.22;100641.75;5046149;27;102384;-49
2021/11/03 06:00:39;;;;;;;15.68;13.55;;;;;;;15.19;69.37;100646.13;5051449;27;102317;-50
2021/11/03 06:03:07;;;;;;;14.90;13.30;;;;;;;15.19;69.40;100653.56;5047276;27;102299;-50
2021/11/03 06:05:33;;;;;;;15.20;13.52;;;;;;;15.19;69.53;100653.56;5043446;27;103914;-48
2021/11/03 06:08:04;;;;;;;15.60;13.43;;;;;;;15.19;69.96;100668.06;5041438;27;103206;-47
2021/11/03 06:10:35;;;;;;;15.73;14.02;;;;;;;15.20;69.28;100663.41;5046384;27;102262;-48
2021/11/03 06:13:02;;;;;;;15.82;14.13;;;;;;;15.20;69.36;100671.63;5040816;27;104531;-49
2021/11/03 06:15:31;;;;;;;16.08;14.35;;;;;;;15.20;69.49;100677.09;5039617;27;103954;-47
2021/11/03 06:17:57;;;;;;;14.63;13.13;;;;;;;15.21;69.58;100678.72;5038118;27;102182;-49
2021/11/03 06:20:26;;;;;;;16.10;14.40;;;;;;;15.20;69.17;100688.88;5049725;27;102790;-48
2021/11/03 06:22:53;;;;;;;15.45;13.57;;;;;;;15.21;69.42;100689.69;5035280;27;102832;-50
2021/11/03 06:25:20;;;;;;;15.70;14.02;;;;;;;15.21;69.53;100689.69;5038876;27;104067;-47
2021/11/03 06:27:47;;;;;;;17.88;14.93;;;;;;;15.21;69.49;100690.50;5000194;28;102934;-48
2021/11/03 06:30:16;;;;;;;17.08;15.23;;;;;;;15.21;69.70;100695.16;5009744;27;102453;-49
2021/11/03 06:32:43;;;;;;;17.23;15.32;;;;;;;15.21;69.53;100698.72;4998689;27;102599;-49
2021/11/03 06:35:10;;;;;;;17.13;15.35;;;;;;;15.23;69.62;100698.44;5006228;28;104008;-50
2021/11/03 06:37:40;;;;;;;17.27;15.48;;;;;;;15.22;69.55;100691.31;5006342;28;102379;-49
2021/11/03 06:40:09;;;;;;;16.08;14.43;;;;;;;15.22;69.51;100707.75;5011354;27;103713;-46
2021/11/03 06:42:36;;;;;;;16.70;14.68;;;;;;;15.22;69.38;100702.25;5026318;27;102852;-49
2021/11/03 06:45:04;;;;;;;16.58;14.80;;;;;;;15.22;69.21;100710.50;5032455;27;103774;-48
2021/11/03 06:47:31;;;;;;;16.25;14.52;;;;;;;15.22;69.46;100713.22;5017357;27;102356;-49
2021/11/03 06:49:57;;;;;;;16.80;15.00;;;;;;;15.23;69.52;100714.88;5004072;28;102274;-47
2021/11/03 06:52:26;;;;;;;17.10;15.30;;;;;;;15.23;69.72;100714.88;5018270;27;103912;-47
2021/11/03 06:54:53;;;;;;;17.30;14.75;;;;;;;15.23;69.32;100720.38;5025610;27;103907;-49
2021/11/03 06:57:20;;;;;;;17.25;14.82;;;;;;;15.22;69.18;100722.28;5028284;27;102121;-48
2021/11/03 06:59:49;;;;;;;16.13;14.38;;;;;;;15.24;69.72;100721.97;5026484;28;102313;-47
2021/11/03 07:02:17;;;;;;;16.92;15.13;;;;;;;15.24;69.42;100720.03;5008762;28;102415;-52
2021/11/03 07:04:44;;;;;;;18.98;15.55;;;;;;;15.24;69.39;100727.47;5004384;28;104008;-51
2021/11/03 07:07:11;;;;;;;18.00;16.08;;;;;;;15.24;69.58;100724.72;5009557;28;102298;-48
2021/11/03 07:09:37;;;;;;;19.42;16.70;;;;;;;15.25;69.88;100724.41;5011245;27;102363;-49
2021/11/03 07:12:06;;;;;;;20.10;17.40;;;;;;;15.25;69.47;100740.84;5018628;27;102503;-49
2021/11/03 07:14:34;;;;;;;19.60;17.50;;;;;;;15.25;69.96;100729.06;5024227;27;103872;-50
2021/11/03 07:17:00;;;;;;;18.50;16.45;;;;;;;15.25;69.48;100735.38;5024886;27;102611;-47
2021/11/03 07:19:27;;;;;;;18.50;15.90;;;;;;;15.26;69.80;100745.25;5021421;27;104861;-49
2021/11/03 07:21:53;;;;;;;18.40;16.48;;;;;;;15.26;69.40;100744.44;5026983;27;102606;-48
2021/11/03 07:24:20;;;;;;;19.48;17.38;;;;;;;15.27;69.76;100748.78;5027078;27;104776;-48
2021/11/03 07:26:46;;;;;;;20.58;17.02;;;;;;;15.27;69.57;100743.31;5024049;27;102358;-47
2021/11/03 07:29:14;;;;;;;20.17;16.85;;;;;;;15.27;69.32;100754.28;5022634;27;102159;-48
2021/11/03 07:31:41;;;;;;;19.92;16.00;;;;;;;15.27;69.32;100754.28;5032337;27;102235;-48
2021/11/03 07:34:08;;;;;;;19.48;16.90;;;;;;;15.26;69.36;100745.25;5024982;27;104243;-47
2021/11/03 07:36:34;;;;;;;22.02;17.30;;;;;;;15.27;69.66;100738.63;5017659;27;104162;-47
2021/11/03 07:39:01;;;;;;;23.08;17.92;;;;;;;15.28;69.78;100733.97;5028454;27;103189;-49
2021/11/03 07:41:27;;;;;;;20.15;16.17;;;;;;;15.28;69.54;100733.97;5033769;27;102284;-48
2021/11/03 07:43:54;;;;;;;21.52;17.65;;;;;;;15.28;69.71;100734.78;5028787;27;103779;-50
2021/11/03 07:46:22;;;;;;;19.75;17.52;;;;;;;15.29;69.33;100735.59;5020406;27;102483;-47
2021/11/03 07:48:48;;;;;;;22.77;18.67;;;;;;;15.30;69.50;100737.22;5004309;28;102448;-48
2021/11/03 07:51:17;;;;;;;20.05;17.75;;;;;;;15.31;69.46;100736.09;5020978;28;102660;-47
2021/11/03 07:53:45;;;;;;;20.65;17.20;;;;;;;15.30;69.33;100735.28;5018613;28;103851;-48
2021/11/03 07:56:19;;;;;;;19.17;17.10;;;;;;;15.31;69.55;100733.38;5005877;28;102196;-47
2021/11/03 07:58:47;;;;;;;18.65;16.52;;;;;;;15.31;69.58;100730.63;4989963;28;102902;-47
2021/11/03 08:01:14;;;;;;;20.33;17.20;;;;;;;15.32;69.63;100729.50;5006915;28;102839;-48
2021/11/03 08:03:42;;;;;;;18.70;16.17;;;;;;;15.31;69.71;100733.38;5011876;27;107870;-50
2021/11/03 08:06:10;;;;;;;20.77;17.40;;;;;;;15.32;69.57;100734.97;5009751;27;102777;-47
2021/11/03 08:08:43;;;;;;;20.00;16.97;;;;;;;15.32;69.68;100733.03;5010945;27;102143;-48
2021/11/03 08:11:11;;;;;;;18.85;16.85;;;;;;;15.32;69.60;100752.25;5024354;28;102193;-48
2021/11/03 08:13:40;;;;;;;19.45;16.67;;;;;;;15.33;69.79;100753.09;5006533;28;104245;-49
2021/11/03 08:16:08;;;;;;;20.15;15.80;;;;;;;15.34;69.78;100760.19;5005943;27;102155;-50
2021/11/03 08:18:40;;;;;;;18.93;16.93;;;;;;;15.35;69.44;100773.56;5007418;27;102134;-48
2021/11/03 08:21:11;;;;;;;19.15;17.05;;;;;;;15.36;69.66;100785.34;5003187;27;102101;-51
2021/11/03 08:23:37;;;;;;;19.38;17.05;;;;;;;15.35;69.65;100781.81;5025231;27;103923;-49
2021/11/03 08:26:04;;;;;;;19.20;17.17;;;;;;;15.37;69.74;100787.00;5031544;27;102945;-47
2021/11/03 08:28:31;;;;;;;19.83;17.73;;;;;;;15.37;69.65;100787.00;5024112;27;105325;-47
2021/11/03 08:30:58;;;;;;;19.40;17.27;;;;;;;15.37;69.72;100781.53;5029757;27;102551;-47
2021/11/03 08:33:30;;;;;;;19.63;17.25;;;;;;;15.39;69.70;100792.97;5033181;27;104031;-48
2021/11/03 08:35:57;;;;;;;17.77;15.88;;;;;;;15.38;69.55;100794.91;5032980;27;102813;-48
2021/11/03 08:38:26;;;;;;;18.30;16.27;;;;;;;15.39;69.41;100790.25;5032151;27;102393;-47
2021/11/03 08:40:53;;;;;;;18.73;16.23;;;;;;;15.40;69.59;100791.88;5032162;27;102614;-47
2021/11/03 08:43:26;;;;;;;20.40;16.52;;;;;;;15.40;69.72;100797.38;5040532;27;103854;-50
2021/11/03 08:45:53;;;;;;;19.10;16.25;;;;;;;15.42;69.82;100797.88;5036423;27;103966;-48
2021/11/03 08:48:20;;;;;;;18.05;15.88;;;;;;;15.42;69.45;100800.63;5036718;27;102164;-48
2021/11/03 08:50:47;;;;;;;17.83;15.98;;;;;;;15.44;69.74;100814.03;5037013;27;102228;-48
2021/11/03 08:53:15;;;;;;;18.73;16.73;;;;;;;15.43;69.77;100813.19;5027781;27;103802;-49
2021/11/03 08:55:44;;;;;;;17.77;15.88;;;;;;;15.44;69.70;100819.53;5029554;27;102812;-48
2021/11/03 08:58:12;;;;;;;17.42;15.48;;;;;;;15.44;69.79;100814.84;5033172;27;102235;-49
2021/11/03 09:00:40;;;;;;;17.40;15.60;;;;;;;15.45;69.52;100821.94;5040621;27;102346;-47
2021/11/03 09:03:07;;;;;;;19.77;16.70;;;;;;;15.45;69.43;100816.47;5029676;27;104124;-50
2021/11/03 09:05:35;;;;;;;17.35;15.55;;;;;;;15.46;69.90;100823.56;5031686;27;102181;-49
2021/11/03 09:08:02;;;;;;;18.75;16.73;;;;;;;15.46;69.69;100822.75;5036333;27;104682;-48
2021/11/03 09:10:37;;;;;;;17.75;15.85;;;;;;;15.47;70.01;100830.72;5023624;27;103868;-49
2021/11/03 09:13:05;;;;;;;17.77;15.98;;;;;;;15.47;69.55;100825.22;5016815;27;103930;-51
2021/11/03 09:15:32;;;;;;;17.85;15.95;;;;;;;15.48;69.85;100832.31;5023552;27;103517;-47
2021/11/03 09:18:00;;;;;;;17.42;15.38;;;;;;;15.49;69.99;100833.13;5028686;27;103314;-50
2021/11/03 09:20:39;;;;;;;18.95;16.58;;;;;;;15.49;69.78;100833.13;5025506;27;102464;-47
2021/11/03 09:23:07;;;;;;;18.25;16.20;;;;;;;15.49;69.81;100831.19;5033816;27;103712;-47
2021/11/03 09:25:34;;;;;;;20.10;16.85;;;;;;;15.50;69.55;100835.56;5024298;27;102218;-47
2021/11/03 09:28:01;;;;;;;17.50;15.60;;;;;;;15.50;69.77;100838.31;5030533;27;102185;-47
2021/11/03 09:30:31;;;;;;;17.98;16.08;;;;;;;15.51;69.71;100836.41;5028473;27;102362;-48
2021/11/03 09:32:59;;;;;;;;;;;;;;;15.51;70.10;100842.69;5020216;27;104113;-48
2021/11/03 09:35:28;;;;;;;18.03;16.13;;;;;;;15.51;69.51;100845.44;5022872;27;102395;-47
2021/11/03 09:37:57;;;;;;;17.63;15.63;;;;;;;15.53;69.99;100842.38;5023701;27;102536;-49
2021/11/03 09:40:27;;;;;;;19.03;16.13;;;;;;;15.53;69.72;100845.94;5034688;27;102367;-48
2021/11/03 09:42:55;;;;;;;17.55;15.65;;;;;;;15.53;69.82;100843.19;5033605;27;103931;-48
2021/11/03 09:45:24;;;;;;;18.58;15.85;;;;;;;15.54;69.58;100844.84;5031518;27;102653;-48
2021/11/03 09:48:07;;;;;;;17.85;15.48;;;;;;;15.54;69.43;100842.09;5028885;27;102578;-47
2021/11/03 09:50:38;;;;;;;17.67;15.52;;;;;;;15.54;69.95;100847.59;5025707;27;102979;-49
2021/11/03 09:53:22;;;;;;;17.80;15.90;;;;;;;15.55;69.90;100853.88;5009123;28;103876;-47
2021/11/03 09:55:50;;;;;;;17.17;15.32;;;;;;;15.56;70.01;100845.34;5014060;27;105984;-49
2021/11/03 09:58:30;;;;;;;18.00;16.10;;;;;;;15.56;69.57;100853.56;5010958;28;106781;-48
2021/11/03 10:01:00;;;;;;;19.75;15.68;;;;;;;15.56;69.50;100853.56;5001611;28;102870;-48
2021/11/03 10:03:39;;;;;;;19.38;15.68;;;;;;;15.57;69.68;100852.44;5010659;28;104820;-50
2021/11/03 10:06:12;;;;;;;17.73;15.90;;;;;;;15.57;69.52;100852.44;5006907;27;102542;-49
2021/11/03 10:08:41;;;;;;;18.60;16.63;;;;;;;15.57;69.52;100852.44;5009667;28;102154;-48
2021/11/03 10:11:17;;;;;;;18.10;16.00;;;;;;;15.58;69.86;100856.03;5012218;27;102600;-47
2021/11/03 10:13:45;;;;;;;18.95;16.88;;;;;;;15.58;69.55;100854.09;5005151;27;104032;-48
2021/11/03 10:16:40;;;;;;;16.75;14.85;;;;;;;15.57;69.89;100855.19;5004975;27;102585;-49
2021/11/03 10:19:29;;;;;;;17.80;15.07;;;;;;;15.57;69.69;100852.44;4977396;28;102190;-51
2021/11/03 10:21:59;;;;;;;17.50;15.70;;;;;;;15.58;69.62;100859.59;5002992;28;104139;-51
2021/11/03 10:24:35;;;;;;;17.63;15.23;;;;;;;15.58;70.01;100865.06;5007387;28;103874;-55
2021/11/03 10:27:12;;;;;;;17.48;15.73;;;;;;;15.58;69.83;100858.78;5025662;27;102248;-48
2021/11/03 10:29:41;;;;;;;17.05;15.32;;;;;;;15.58;69.95;100865.06;5015082;28;102398;-50
2021/11/03 10:32:20;;;;;;;18.00;15.25;;;;;;;15.59;69.61;100865.88;5014290;28;102698;-48
2021/11/03 10:34:59;;;;;;;17.00;15.20;;;;;;;15.58;69.40;100858.78;5009097;28;104037;-48
2021/11/03 10:37:32;;;;;;;;;;;;;;;15.58;69.86;100870.56;5011139;27;102144;-48
2021/11/03 10:40:05;;;;;;;16.88;15.02;;;;;;;15.58;69.83;100865.06;5013820;27;102617;-47
2021/11/03 10:42:46;;;;;;;17.00;15.20;;;;;;;15.59;69.60;100865.88;5018630;28;102220;-48
2021/11/03 10:45:25;;;;;;;16.38;14.68;;;;;;;15.58;69.61;100858.78;5007986;28;104049;-48
2021/11/03 10:47:55;;;;;;;17.60;15.68;;;;;;;15.57;69.54;100863.41;5012650;28;102227;-49
2021/11/03 10:50:30;;;;;;;17.27;15.48;;;;;;;15.58;69.81;100858.78;5004626;28;102441;-50
2021/11/03 10:53:15;;;;;;;16.33;14.63;;;;;;;15.57;69.70;100857.94;5011759;28;102137;-48
2021/11/03 10:55:44;;;;;;;;;;;;;;;15.57;69.50;100863.41;5014509;28;108167;-51
2021/11/03 10:58:23;;;;;;;16.20;14.48;;;;;;;15.57;69.23;100868.09;5032645;27;102268;-47
2021/11/03 11:01:06;;;;;;;15.95;14.25;;;;;;;15.56;69.47;100867.28;5011734;28;102288;-49
2021/11/03 11:03:37;;;;;;;16.45;14.73;;;;;;;15.57;69.56;100868.09;5008508;28;103098;-48
2021/11/03 11:06:13;;;;;;;16.30;14.60;;;;;;;15.57;69.34;100873.59;5013683;27;103924;-48
2021/11/03 11:08:48;;;;;;;17.50;15.70;;;;;;;15.56;69.57;100880.19;5018093;27;103058;-48
2021/11/03 11:11:17;;;;;;;16.23;14.52;;;;;;;15.56;69.45;100889.22;5006270;28;102179;-48
2021/11/03 11:13:51;;;;;;;16.48;14.77;;;;;;;15.56;69.71;100889.22;5009437;28;102892;-47
2021/11/03 11:16:27;;;;;;;16.70;14.73;;;;;;;15.55;69.49;100893.09;5020478;27;103875;-49